Latest Weather Observations for Century Mine

IDQ60801

Issued at 9:02 am EST Wednesday 25 January 2017 (issued every 30 minutes, with the page automatically refreshed every 10 minutes)

About weather observations | Map of weather stations | Latest weather observations for QLD | Other Formats
Station Details ID: 029167 Name: CENTURY MINE Lat: -18.76 Lon: 138.71 Height: 126.8 m
Data from the previous 72 hours. | See also: Recent months at Century Mine
Date/Time
EST
Temp
°C
App
Temp
°C
Dew
Point
°C
Rel
Hum
%
Delta-T
°C
Wind Press
QNH
hPa
Press
MSL
hPa
Rain since
9am
mm
Dir  Spd
km/h
Gust
km/h
Spd
kts
Gust
kts
25/09:00am 29.2 33.1 22.9 69 4.3 ENE 7 11 4 6 1012.5 1011.5 5.8
25/08:30am 28.5 33.2 23.9 76 3.2 ESE 6 9 3 5 1012.4 1011.4 5.8
25/08:00am 27.4 33.1 25.0 87 1.7 SE 4 9 2 5 1012.5 1011.5 5.8
25/07:30am 25.7 32.0 24.8 95 0.6 CALM 0 0 0 0 1012.5 1011.5 5.8
25/07:00am 24.7 30.4 23.8 95 0.6 CALM 0 0 0 0 1012.0 1011.0 5.8
25/06:30am 24.5 30.1 23.5 94 0.7 CALM 0 0 0 0 1011.6 1010.7 5.8
25/06:00am 24.6 30.2 23.6 94 0.7 CALM 0 0 0 0 1011.2 1010.3 5.8
25/05:30am 24.8 29.4 23.8 94 0.7 SE 6 7 3 4 1011.0 1010.1 5.8
25/05:00am 24.8 30.6 23.9 95 0.6 CALM 0 0 0 0 1010.7 1009.8 5.8
25/04:30am 24.9 30.7 23.9 94 0.7 CALM 0 0 0 0 1010.4 1009.5 5.8
25/04:00am 24.9 30.7 23.9 94 0.7 CALM 0 0 0 0 1010.5 1009.6 5.8
25/03:30am 24.9 30.7 23.9 94 0.7 CALM 0 0 0 0 1010.1 1009.2 5.8
25/03:00am 25.0 30.7 23.8 93 0.8 CALM 0 0 0 0 1010.3 1009.4 5.8
25/02:30am 25.0 30.7 23.8 93 0.8 CALM 0 0 0 0 1010.5 1009.6 5.8
25/02:00am 25.2 30.9 23.8 92 1.0 CALM 0 0 0 0 1010.8 1009.9 5.8
25/01:30am 25.5 31.3 23.9 91 1.1 CALM 0 0 0 0 1011.0 1010.1 5.8
25/01:00am 25.5 31.4 24.1 92 1.0 CALM 0 0 0 0 1011.4 1010.5 5.8
25/12:30am 25.7 31.5 23.9 90 1.2 CALM 0 0 0 0 1011.6 1010.7 5.8
25/12:00am 26.0 31.7 23.7 87 1.6 CALM 0 0 0 0 1011.9 1010.9 5.8
 
Date/Time
EST
Temp
°C
App
Temp
°C
Dew
Point
°C
Rel
Hum
%
Delta-T
°C
Wind Press
QNH
hPa
Press
MSL
hPa
Rain since
9am
mm
Dir  Spd
km/h
Gust
km/h
Spd
kts
Gust
kts
24/11:30pm 26.5 31.0 23.6 84 2.0 NNE 6 7 3 4 1011.8 1010.8 5.8
24/11:00pm 26.9 31.2 23.6 82 2.3 NE 7 7 4 4 1011.8 1010.8 5.8
24/10:30pm 27.5 31.3 23.5 79 2.8 NNE 9 15 5 8 1011.5 1010.6 5.8
24/10:00pm 27.8 30.7 23.2 76 3.2 NNE 13 19 7 10 1011.1 1010.2 5.8
24/09:30pm 28.2 31.3 22.9 73 3.6 NE 11 15 6 8 1010.9 1010.0 5.8
24/09:00pm 28.5 31.9 22.7 71 4.0 NE 9 13 5 7 1010.5 1009.6 5.8
24/08:30pm 28.7 31.7 22.7 70 4.1 ENE 11 17 6 9 1009.8 1008.8 5.8
24/08:00pm 28.9 32.0 22.2 67 4.6 NE 9 13 5 7 1009.3 1008.3 5.8
24/07:30pm 29.6 31.8 21.8 63 5.3 NE 13 19 7 10 1009.0 1008.0 5.8
24/07:00pm 30.1 32.4 22.0 62 5.5 NE 13 20 7 11 1008.6 1007.6 5.8
24/06:30pm 30.6 33.0 22.2 61 5.7 NNE 13 19 7 10 1008.4 1007.4 5.8
24/06:00pm 31.1 32.0 21.6 57 6.4 NNE 19 26 10 14 1008.1 1007.1 5.8
24/05:30pm 31.4 33.1 22.4 59 6.2 NNE 17 24 9 13 1008.0 1007.0 5.8
24/05:00pm 32.1 33.9 23.3 59 6.1 NE 19 26 10 14 1007.9 1006.9 5.8
24/04:30pm 31.6 33.8 23.2 61 5.8 NE 17 28 9 15 1008.2 1007.2 5.8
24/04:00pm 31.2 33.6 23.0 61 5.7 NNE 15 30 8 16 1008.2 1007.2 5.8
24/03:30pm 30.8 32.3 22.7 62 5.6 NNE 19 30 10 16 1008.3 1007.3 5.8
24/03:00pm 30.6 34.2 25.0 72 4.0 NNE 15 24 8 13 1008.5 1007.5 5.8
24/02:30pm 29.1 34.7 25.7 82 2.4 NNW 7 11 4 6 1009.2 1008.2 5.8
24/02:00pm 26.9 32.8 24.7 88 1.5 NNW 2 7 1 4 1009.3 1008.3 5.8
24/01:30pm 25.5 30.5 23.9 91 1.1 NE 4 7 2 4 1010.1 1009.2 5.8
24/01:00pm 24.1 22.4 20.6 81 2.3 NNE 30 54 16 29 1010.9 1010.0 5.2
24/12:52pm 26.9 24.7 20.3 67 4.3 NE 32 59 17 32 1011.2 1010.3 2.4
24/12:49pm 28.3 26.3 19.2 57 5.9 NE 28 59 15 32 1010.9 1010.0 2.4
24/12:30pm 32.6 36.1 25.4 66 5.1 NE 17 24 9 13 1010.1 1009.2 2.4
24/12:00pm 29.5 33.3 24.1 72 3.8 ENE 11 24 6 13 1010.3 1009.4 2.4
24/11:30am 28.4 32.8 25.6 85 2.0 N 13 19 7 10 1010.7 1009.8 2.4
24/11:00am 31.9 34.1 24.0 63 5.5 N 19 26 10 14 1010.8 1009.9 0.0
24/10:30am 33.3 34.8 23.0 54 7.1 NE 20 28 11 15 1010.5 1009.6 0.0
24/10:00am 31.2 31.5 22.2 58 6.1 NE 24 35 13 19 1010.7 1009.8 0.0
24/09:30am 30.5 31.2 22.9 64 5.2 NNE 24 39 13 21 1010.8 1009.9 0.0
24/09:00am 30.0 32.0 23.9 70 4.2 NE 20 30 11 16 1010.7 1009.8 0.0
24/08:30am 29.4 31.0 23.8 72 3.9 NE 22 32 12 17 1010.5 1009.6 0.0
24/08:00am 28.8 31.5 24.1 76 3.3 NE 17 28 9 15 1010.0 1009.1 0.0
24/07:30am 27.4 30.5 24.1 82 2.3 NE 15 22 8 12 1009.5 1008.5 0.0
24/07:00am 26.2 30.6 24.4 90 1.3 NE 9 15 5 8 1009.0 1008.0 0.0
24/06:30am 25.8 30.1 24.2 91 1.1 NE 9 15 5 8 1008.6 1007.6 0.0
24/06:00am 25.6 30.2 24.2 92 1.0 ENE 7 11 4 6 1008.4 1007.4 0.0
24/05:30am 25.5 30.1 24.1 92 1.0 E 7 9 4 5 1008.1 1007.1 0.0
24/05:00am 25.5 30.2 23.9 91 1.1 ENE 6 7 3 4 1008.2 1007.2 0.0
24/04:30am 25.6 30.2 23.8 90 1.2 ENE 6 7 3 4 1007.9 1006.9 0.0
24/04:00am 25.6 30.0 23.8 90 1.2 E 7 9 4 5 1007.9 1006.9 0.0
24/03:30am 25.7 30.2 23.7 89 1.4 ESE 6 7 3 4 1008.2 1007.2 0.0
24/03:00am 25.9 31.1 23.6 87 1.6 ENE 2 6 1 3 1008.3 1007.3 0.0
24/02:30am 26.0 30.7 23.3 85 1.8 NNE 4 6 2 3 1008.5 1007.5 0.0
24/02:00am 26.3 31.4 23.4 84 2.0 NE 2 7 1 4 1009.0 1008.0 0.0
24/01:30am 26.4 30.8 23.5 84 2.0 NE 6 9 3 5 1009.2 1008.2 0.0
24/01:00am 26.6 30.8 23.5 83 2.1 NE 7 11 4 6 1009.5 1008.5 0.0
24/12:30am 26.7 30.9 23.2 81 2.4 NE 6 9 3 5 1009.6 1008.6 0.0
24/12:00am 27.0 31.1 23.3 80 2.5 NE 7 11 4 6 1009.6 1008.6 0.0
 
Date/Time
EST
Temp
°C
App
Temp
°C
Dew
Point
°C
Rel
Hum
%
Delta-T
°C
Wind Press
QNH
hPa
Press
MSL
hPa
Rain since
9am
mm
Dir  Spd
km/h
Gust
km/h
Spd
kts
Gust
kts
23/11:30pm 27.2 31.3 23.0 78 2.9 ENE 6 7 3 4 1010.0 1009.1 0.0
23/11:00pm 27.5 31.0 22.9 76 3.1 NE 9 13 5 7 1009.7 1008.7 0.0
23/10:30pm 27.9 30.5 22.6 73 3.6 NE 13 19 7 10 1009.6 1008.6 0.0
23/10:00pm 28.1 31.3 22.3 70 3.9 NE 9 15 5 8 1009.5 1008.5 0.0
23/09:30pm 28.5 30.8 22.0 68 4.4 NE 13 20 7 11 1009.6 1008.6 0.0
23/09:00pm 28.9 31.3 22.2 67 4.6 NE 13 17 7 9 1009.6 1008.6 0.0
23/08:30pm 29.1 31.8 22.1 66 4.7 NNE 11 19 6 10 1009.5 1008.5 0.0
23/08:00pm 29.5 32.2 22.2 65 5.0 NNE 11 20 6 11 1009.3 1008.3 0.0
23/07:30pm 30.1 31.3 21.5 60 5.8 NNE 17 26 9 14 1008.7 1007.7 0.0
23/07:00pm 30.4 31.2 21.8 60 5.8 NE 20 30 11 16 1007.7 1006.7 0.0
23/06:30pm 31.1 31.4 21.6 57 6.4 NE 22 37 12 20 1007.0 1006.0 0.0
23/06:00pm 31.5 31.6 21.9 56 6.5 NE 24 37 13 20 1006.5 1005.5 0.0
23/05:30pm 31.9 31.4 21.4 53 7.1 NE 26 43 14 23 1006.0 1005.0 0.0
23/05:00pm 33.0 32.8 22.1 52 7.5 NE 26 41 14 22 1005.7 1004.7 0.0
23/04:30pm 31.4 32.7 22.7 60 6.0 NE 20 35 11 19 1006.1 1005.1 0.0
23/04:00pm 32.6 32.1 21.5 52 7.6 NNE 26 43 14 23 1005.8 1004.8 0.0
23/03:30pm 34.6 35.2 21.3 46 9.0 NNE 20 37 11 20 1005.6 1004.6 0.0
23/03:00pm 35.2 34.9 21.1 43 9.6 NE 24 35 13 19 1006.1 1005.1 0.0
23/02:30pm 34.9 36.3 22.9 49 8.3 ENE 20 32 11 17 1006.6 1005.6 0.0
23/02:00pm 33.5 33.1 21.0 48 8.5 NE 24 35 13 19 1006.8 1005.8 0.0
23/01:30pm 34.1 34.0 21.5 47 8.6 NE 24 35 13 19 1007.1 1006.1 0.0
23/01:00pm 34.6 36.4 23.3 52 7.9 ENE 19 28 10 15 1007.5 1006.5 0.0
23/12:30pm 32.5 32.6 20.4 49 8.1 NE 20 30 11 16 1008.1 1007.1 0.0
23/12:00pm 30.2 30.2 21.6 60 5.8 ENE 24 33 13 18 1008.4 1007.4 0.0
23/11:30am 33.0 34.7 22.4 53 7.3 NE 17 30 9 16 1008.5 1007.5 0.0
23/11:00am 33.1 36.3 24.3 60 6.2 ENE 15 22 8 12 1008.8 1007.8 0.0
23/10:30am 33.3 35.9 23.9 58 6.6 NE 17 24 9 13 1008.9 1007.9 0.0
23/10:00am 31.0 34.2 23.1 63 5.5 NE 11 19 6 10 1008.6 1007.6 0.0
23/09:30am 31.1 34.2 23.5 64 5.3 ENE 13 20 7 11 1008.2 1007.2 0.0
23/09:00am 29.2 32.6 23.4 71 4.0 NNE 11 15 6 8 1008.3 1007.3 0.0
23/08:30am 29.5 33.3 23.4 69 4.2 NNE 9 15 5 8 1007.9 1006.9 0.0
23/08:00am 29.2 33.9 24.3 75 3.4 E 7 11 4 6 1007.5 1006.5 0.0
23/07:30am 27.9 33.2 24.9 84 2.1 E 6 9 3 5 1007.7 1006.7 0.0
23/07:00am 26.7 32.0 25.3 92 1.0 ESE 7 9 4 5 1007.9 1006.9 0.0
23/06:30am 25.9 32.0 24.5 92 1.0 CALM 0 4 0 2 1007.4 1006.4 0.0
23/06:00am 25.9 31.7 24.5 92 1.0 E 2 6 1 3 1007.2 1006.2 0.0
23/05:30am 25.9 31.9 24.3 91 1.1 CALM 0 0 0 0 1006.9 1005.9 0.0
23/05:00am 26.0 32.1 24.4 91 1.1 CALM 0 0 0 0 1007.0 1006.0 0.0
23/04:30am 26.1 32.1 24.3 90 1.2 CALM 0 0 0 0 1006.7 1005.7 0.0
23/04:00am 26.2 32.3 24.4 90 1.3 CALM 0 0 0 0 1006.7 1005.7 0.0
23/03:30am 26.2 32.3 24.4 90 1.2 CALM 0 0 0 0 1006.8 1005.8 0.0
23/03:00am 26.4 32.5 24.4 89 1.4 CALM 0 0 0 0 1006.9 1005.9 0.0
23/02:30am 26.5 32.5 24.2 87 1.6 CALM 0 0 0 0 1006.9 1005.9 0.0
23/02:00am 27.0 31.7 23.9 83 2.1 N 6 7 3 4 1006.8 1005.8 0.0
23/01:30am 26.6 32.0 23.9 85 1.9 WSW 2 6 1 3 1007.3 1006.3 0.0
23/01:00am 26.9 32.4 24.0 84 2.0 W 2 6 1 3 1007.8 1006.8 0.0
23/12:30am 27.4 32.3 23.6 80 2.6 N 4 7 2 4 1008.3 1007.3 0.0
23/12:00am 27.5 31.7 23.5 79 2.8 NNE 7 7 4 4 1008.4 1007.4 0.0
 
Date/Time
EST
Temp
°C
App
Temp
°C
Dew
Point
°C
Rel
Hum
%
Delta-T
°C
Wind Press
QNH
hPa
Press
MSL
hPa
Rain since
9am
mm
Dir  Spd
km/h
Gust
km/h
Spd
kts
Gust
kts
22/11:30pm 27.7 32.4 23.3 77 3.0 NW 4 7 2 4 1008.3 1007.3 0.0
22/11:00pm 27.9 33.2 23.1 75 3.3 CALM 0 0 0 0 1008.4 1007.4 0.0
22/10:30pm 28.0 31.9 22.9 74 3.5 NNE 7 9 4 5 1008.1 1007.1 0.0
22/10:00pm 28.0 33.1 22.7 73 3.6 CALM 0 0 0 0 1008.1 1007.1 0.0
22/09:30pm 28.6 33.7 22.6 70 4.1 CALM 0 7 0 4 1008.0 1007.0 0.0
22/09:00pm 28.9 32.1 22.4 68 4.4 NNE 9 11 5 6 1007.6 1006.6 0.0
22/08:30pm 29.2 32.3 22.2 66 4.8 NNE 9 13 5 7 1007.4 1006.4 0.0
22/08:00pm 29.7 32.5 21.6 61 5.5 NE 9 15 5 8 1006.9 1005.9 0.0
22/07:30pm 30.3 32.2 21.4 59 6.0 NNE 13 19 7 10 1006.5 1005.5 0.0
22/07:00pm 31.0 32.5 22.0 58 6.1 NE 17 30 9 16 1005.8 1004.8 0.0
22/06:30pm 31.7 32.9 22.1 56 6.6 NE 19 26 10 14 1005.5 1004.5 0.0
22/06:00pm 33.6 33.8 21.4 48 8.3 NE 22 35 12 19 1004.8 1003.8 0.0
22/05:30pm 36.1 37.5 20.4 40 10.6 ENE 13 22 7 12 1004.7 1003.7 0.0
22/05:00pm 36.6 38.9 22.7 44 9.7 NE 15 20 8 11 1004.8 1003.8 0.0
22/04:30pm 36.1 37.1 19.5 37 11.1 NNE 13 20 7 11 1004.5 1003.5 0.0
22/04:00pm 36.7 39.2 22.4 43 9.9 ENE 13 20 7 11 1005.0 1004.0 0.0
22/03:30pm 36.4 38.5 21.0 40 10.5 E 11 19 6 10 1005.6 1004.6 0.0
22/03:00pm 35.7 37.3 20.0 39 10.6 E 11 19 6 10 1006.1 1005.1 0.0
22/02:30pm 35.2 37.0 21.1 43 9.6 N 13 22 7 12 1006.9 1005.9 0.0
22/02:00pm 35.2 37.7 22.5 47 8.8 NNE 13 20 7 11 1007.5 1006.5 0.0
22/01:30pm 34.7 37.4 22.1 48 8.7 N 11 15 6 8 1007.9 1006.9 0.0
22/01:00pm 34.7 37.8 22.1 48 8.7 NNE 9 17 5 9 1008.0 1007.0 0.0
22/12:30pm 34.2 36.9 21.3 47 8.8 NNW 9 13 5 7 1008.0 1007.0 0.0
22/12:00pm 34.2 37.2 21.9 48 8.4 NNE 9 17 5 9 1008.2 1007.2 0.0
22/11:30am 33.4 36.9 22.8 53 7.3 N 9 13 5 7 1008.7 1007.7 0.0
22/11:00am 32.7 35.4 20.6 49 8.1 NNE 7 13 4 7 1009.1 1008.1 0.0
22/10:30am 32.6 35.7 21.5 52 7.5 E 7 11 4 6 1009.3 1008.3 0.0
22/10:00am 31.1 35.2 21.6 57 6.4 ENE 2 9 1 5 1009.5 1008.5 0.0
22/09:30am 30.5 35.1 22.4 62 5.5 S 2 9 1 5 1009.6 1008.6 0.0

Other Formats:

Comma delimited format used in spreadsheet applications
http://www.bom.gov.au/fwo/IDQ60801/IDQ60801.94261.axf

JavaScript Object Notation format (JSON) in row-major order
http://www.bom.gov.au/fwo/IDQ60801/IDQ60801.94261.json